createdAt,value
2018-08-19T00:01:08.081Z,83.59
2018-08-19T00:03:36.221Z,83.45
2018-08-19T00:06:04.666Z,84.02
2018-08-19T00:08:32.793Z,84.19
2018-08-19T00:11:02.977Z,84.48
2018-08-19T00:13:31.105Z,84.81
2018-08-19T00:15:59.278Z,84.43
2018-08-19T00:18:27.425Z,84.47
2018-08-19T00:20:55.603Z,84.89
2018-08-19T00:23:23.753Z,84.74
2018-08-19T00:25:51.908Z,85.03
2018-08-19T00:28:20.844Z,85.10
2018-08-19T00:30:48.985Z,85.51
2018-08-19T00:33:17.111Z,85.91
2018-08-19T00:35:45.253Z,85.60
2018-08-19T00:38:14.881Z,86.08
2018-08-19T00:40:43.468Z,86.06
2018-08-19T00:43:12.157Z,85.67
2018-08-19T00:45:40.342Z,85.84
2018-08-19T00:48:11.082Z,86.05
2018-08-19T00:50:39.384Z,86.15
2018-08-19T00:53:08.380Z,86.35
2018-08-19T00:55:41.934Z,86.46
2018-08-19T00:58:14.959Z,86.82
2018-08-19T01:00:43.188Z,87.00
2018-08-19T01:03:11.750Z,86.62
2018-08-19T01:05:39.971Z,86.78
2018-08-19T01:08:09.097Z,87.19
2018-08-19T01:10:37.245Z,87.68
2018-08-19T01:13:05.368Z,87.90
2018-08-19T01:15:33.504Z,87.96
2018-08-19T01:18:01.649Z,87.65
2018-08-19T01:20:29.852Z,87.88
2018-08-19T01:22:57.956Z,87.99
2018-08-19T01:25:26.115Z,88.03
2018-08-19T01:27:54.245Z,88.08
2018-08-19T01:30:25.926Z,87.76
2018-08-19T01:32:54.087Z,87.84
2018-08-19T01:35:27.061Z,88.34
2018-08-19T01:37:55.170Z,88.30
2018-08-19T01:40:23.339Z,88.32
2018-08-19T01:42:51.493Z,88.51
2018-08-19T01:45:19.616Z,88.46
2018-08-19T01:47:47.757Z,88.50
2018-08-19T01:50:17.563Z,88.77
2018-08-19T01:52:48.096Z,88.91
2018-08-19T01:55:16.205Z,88.49
2018-08-19T01:57:48.446Z,88.73
2018-08-19T02:00:17.907Z,88.68
2018-08-19T02:03:03.220Z,88.64
2018-08-19T02:05:31.365Z,88.76
2018-08-19T02:08:01.933Z,89.12
2018-08-19T02:10:31.321Z,89.15
2018-08-19T02:13:00.164Z,88.92
2018-08-19T02:15:29.321Z,89.25
2018-08-19T02:17:59.572Z,89.45
2018-08-19T02:20:33.605Z,89.43
2018-08-19T02:23:03.898Z,89.37
2018-08-19T02:25:44.815Z,89.27
2018-08-19T02:28:13.601Z,89.22
2018-08-19T02:30:49.041Z,89.16
2018-08-19T02:33:17.193Z,89.58
2018-08-19T02:35:48.433Z,89.38
2018-08-19T02:38:16.589Z,89.61
2018-08-19T02:40:44.712Z,89.58
2018-08-19T02:43:12.836Z,89.35
2018-08-19T02:45:40.957Z,89.51
2018-08-19T02:48:09.114Z,89.12
2018-08-19T02:50:37.289Z,89.58
2018-08-19T02:53:05.810Z,89.21
2018-08-19T02:55:33.937Z,89.45
2018-08-19T02:58:07.380Z,89.88
2018-08-19T03:00:35.513Z,89.79
2018-08-19T03:03:03.642Z,89.65
2018-08-19T03:05:31.744Z,89.64
2018-08-19T03:08:00.213Z,89.56
2018-08-19T03:10:28.327Z,89.37
2018-08-19T03:12:56.469Z,89.68
2018-08-19T03:15:24.633Z,89.61
2018-08-19T03:17:52.757Z,89.69
2018-08-19T03:20:21.286Z,89.56
2018-08-19T03:22:49.380Z,89.84
2018-08-19T03:25:17.485Z,90.08
2018-08-19T03:27:45.606Z,90.27
2018-08-19T03:30:15.157Z,90.04
2018-08-19T03:32:49.617Z,90.35
2018-08-19T03:35:19.169Z,90.42
2018-08-19T03:37:47.670Z,89.97
2018-08-19T03:40:15.765Z,90.07
2018-08-19T03:42:43.886Z,90.10
2018-08-19T03:45:18.373Z,90.59
2018-08-19T03:47:46.902Z,90.23
2018-08-19T03:50:19.920Z,90.67
2018-08-19T03:52:48.069Z,90.12
2018-08-19T03:55:21.656Z,90.26
2018-08-19T03:57:50.200Z,90.44
2018-08-19T04:00:19.193Z,90.08
2018-08-19T04:02:47.438Z,90.00
2018-08-19T04:05:15.575Z,90.48
2018-08-19T04:07:44.267Z,89.98
2018-08-19T04:10:12.801Z,89.86
2018-08-19T04:12:40.929Z,90.08
2018-08-19T04:15:09.697Z,90.15
2018-08-19T04:17:37.801Z,90.21
2018-08-19T04:20:06.662Z,90.12
2018-08-19T04:22:34.798Z,90.18
2018-08-19T04:25:02.937Z,90.04
2018-08-19T04:27:31.054Z,90.00
2018-08-19T04:29:59.202Z,90.01
2018-08-19T04:32:30.408Z,89.65
2018-08-19T04:34:58.967Z,89.55
2018-08-19T04:37:27.316Z,90.09
2018-08-19T04:39:55.465Z,89.95
2018-08-19T04:42:23.812Z,89.62
2018-08-19T04:44:57.343Z,89.52
2018-08-19T04:47:28.789Z,88.93
2018-08-19T04:49:56.945Z,88.69
2018-08-19T04:52:25.462Z,88.33
2018-08-19T04:54:54.713Z,87.74
2018-08-19T04:57:22.922Z,87.10
2018-08-19T04:59:51.069Z,87.10
2018-08-19T05:02:20.161Z,86.13
2018-08-19T05:04:48.195Z,82.46
2018-08-19T05:07:16.298Z,79.81
2018-08-19T05:09:44.454Z,79.19
2018-08-19T05:12:12.645Z,75.25
2018-08-19T05:14:40.747Z,73.50
2018-08-19T05:17:08.892Z,73.14
2018-08-19T05:19:37.054Z,72.43
2018-08-19T05:22:10.682Z,74.20
2018-08-19T05:24:39.396Z,76.70
2018-08-19T05:27:08.413Z,78.53
2018-08-19T05:29:36.741Z,79.54
2018-08-19T05:32:05.144Z,76.61
2018-08-19T05:34:36.492Z,74.42
2018-08-19T05:37:04.993Z,72.07
2018-08-19T05:39:33.144Z,69.46
2018-08-19T05:42:13.220Z,65.17
2018-08-19T05:44:41.913Z,62.15
2018-08-19T05:47:11.145Z,58.47
2018-08-19T05:49:42.266Z,63.24
2018-08-19T05:52:15.633Z,68.51
2018-08-19T05:54:47.969Z,71.05
2018-08-19T05:57:17.838Z,72.04
2018-08-19T05:59:46.979Z,70.88
2018-08-19T06:02:15.160Z,70.61
2018-08-19T06:04:43.618Z,71.37
2018-08-19T06:07:11.732Z,73.32
2018-08-19T06:09:39.841Z,74.50
2018-08-19T06:12:07.983Z,75.26
2018-08-19T06:14:36.105Z,75.46
2018-08-19T06:17:05.120Z,76.23
2018-08-19T06:19:33.913Z,76.28
2018-08-19T06:22:02.207Z,77.05
2018-08-19T06:24:30.411Z,76.72
2018-08-19T06:26:58.482Z,76.08
2018-08-19T06:29:44.873Z,77.17
2018-08-19T06:32:20.843Z,76.64
2018-08-19T06:34:49.707Z,76.77
2018-08-19T06:37:18.107Z,76.20
2018-08-19T06:39:46.281Z,77.94
2018-08-19T06:42:14.377Z,77.52
2018-08-19T06:44:42.485Z,77.43
2018-08-19T06:47:10.667Z,77.20
2018-08-19T06:49:44.946Z,77.97
2018-08-19T06:52:13.145Z,78.16
2018-08-19T06:54:41.241Z,77.47
2018-08-19T06:57:10.176Z,77.41
2018-08-19T06:59:38.655Z,77.87
2018-08-19T07:02:07.653Z,78.39
2018-08-19T07:04:40.300Z,77.59
2018-08-19T07:07:10.263Z,77.65
2018-08-19T07:09:39.394Z,76.63
2018-08-19T07:12:11.633Z,77.08
2018-08-19T07:14:39.787Z,76.75
2018-08-19T07:17:07.944Z,76.45
2018-08-19T07:19:36.869Z,76.27
2018-08-19T07:22:06.307Z,75.11
2018-08-19T07:24:35.780Z,75.34
2018-08-19T07:27:03.935Z,75.76
2018-08-19T07:29:32.498Z,74.12
2018-08-19T07:32:00.601Z,74.31
2018-08-19T07:34:28.726Z,74.32
2018-08-19T07:36:58.066Z,73.80
2018-08-19T07:39:26.817Z,72.10
2018-08-19T07:41:55.092Z,71.59
2018-08-19T07:44:23.248Z,68.66
2018-08-19T07:46:51.358Z,68.08
2018-08-19T07:49:19.698Z,66.96
2018-08-19T07:51:47.842Z,68.61
2018-08-19T07:54:16.013Z,67.89
2018-08-19T07:56:44.179Z,67.89
2018-08-19T07:59:14.105Z,68.36
2018-08-19T08:01:42.307Z,68.00
2018-08-19T08:04:10.772Z,67.29
2018-08-19T08:06:38.922Z,67.96
2018-08-19T08:09:09.335Z,66.04
2018-08-19T08:11:37.477Z,67.19
2018-08-19T08:14:05.941Z,66.32
2018-08-19T08:16:41.575Z,66.98
2018-08-19T08:19:09.809Z,67.10
2018-08-19T08:21:38.090Z,67.70
2018-08-19T08:24:06.816Z,67.42
2018-08-19T08:26:37.509Z,69.16
2018-08-19T08:29:05.848Z,69.13
2018-08-19T08:31:41.021Z,68.87
2018-08-19T08:34:09.222Z,68.77
2018-08-19T08:36:37.356Z,68.53
2018-08-19T08:39:07.167Z,68.28
2018-08-19T08:41:35.321Z,68.57
2018-08-19T08:44:03.663Z,68.13
2018-08-19T08:46:31.817Z,69.03
2018-08-19T08:48:59.983Z,67.72
2018-08-19T08:51:28.106Z,67.90
2018-08-19T08:53:56.724Z,68.14
2018-08-19T08:56:25.016Z,66.40
2018-08-19T08:58:53.178Z,64.01
2018-08-19T09:01:21.303Z,65.63
2018-08-19T09:03:49.413Z,65.55
2018-08-19T09:06:22.938Z,65.46
2018-08-19T09:08:51.072Z,65.10
2018-08-19T09:11:19.195Z,64.74
2018-08-19T09:13:47.439Z,64.92
2018-08-19T09:16:15.586Z,64.12
2018-08-19T09:18:43.768Z,63.68
2018-08-19T09:21:11.962Z,64.36
2018-08-19T09:23:40.100Z,63.43
2018-08-19T09:26:08.350Z,63.03
2018-08-19T09:28:36.457Z,62.88
2018-08-19T09:31:04.759Z,63.18
2018-08-19T09:33:33.604Z,63.87
2018-08-19T09:36:01.739Z,63.63
2018-08-19T09:38:29.904Z,63.83
2018-08-19T09:40:58.144Z,64.23
2018-08-19T09:43:26.313Z,63.81
2018-08-19T09:45:54.483Z,62.73
2018-08-19T09:48:22.601Z,62.78
2018-08-19T09:50:50.700Z,63.41
2018-08-19T09:53:18.807Z,62.90
2018-08-19T09:56:19.771Z,63.83
2018-08-19T09:58:52.113Z,62.51
2018-08-19T10:01:25.568Z,62.92
2018-08-19T10:03:53.717Z,63.38
2018-08-19T10:06:21.867Z,63.04
2018-08-19T10:08:49.969Z,63.06
2018-08-19T10:11:18.117Z,61.40
2018-08-19T10:13:48.549Z,63.55
2018-08-19T10:16:16.753Z,62.97
2018-08-19T10:18:44.952Z,62.41
2018-08-19T10:21:18.307Z,62.84
2018-08-19T10:23:46.434Z,62.39
2018-08-19T10:26:14.602Z,62.59
2018-08-19T10:28:42.717Z,62.40
2018-08-19T10:31:16.315Z,62.58
2018-08-19T10:33:44.559Z,60.37
2018-08-19T10:36:12.681Z,61.08
2018-08-19T10:38:40.839Z,61.19
2018-08-19T10:41:08.949Z,60.37
2018-08-19T10:43:37.093Z,59.98
2018-08-19T10:46:05.285Z,60.68
2018-08-19T10:48:33.370Z,59.35
2018-08-19T10:51:02.626Z,58.08
2018-08-19T10:53:30.765Z,58.49
2018-08-19T10:56:01.648Z,58.99
2018-08-19T10:58:29.742Z,59.89
2018-08-19T11:00:57.874Z,60.17
2018-08-19T11:03:26.042Z,59.69
2018-08-19T11:05:55.473Z,58.75
2018-08-19T11:08:23.614Z,58.69
2018-08-19T11:10:51.728Z,58.17
2018-08-19T11:13:21.477Z,58.71
2018-08-19T11:15:55.649Z,58.33
2018-08-19T11:18:27.755Z,57.92
2018-08-19T11:21:59.549Z,58.06
2018-08-19T11:24:28.031Z,56.92
2018-08-19T11:27:01.222Z,57.90
2018-08-19T11:29:29.664Z,56.80
2018-08-19T11:31:57.775Z,57.20
2018-08-19T11:34:25.894Z,57.48
2018-08-19T11:36:54.019Z,55.99
2018-08-19T11:39:28.622Z,57.12
2018-08-19T11:41:58.485Z,55.95
2018-08-19T11:44:26.728Z,56.71
2018-08-19T11:46:54.848Z,56.76
2018-08-19T11:49:22.979Z,56.45
2018-08-19T11:52:00.415Z,55.68
2018-08-19T11:54:29.218Z,56.18
2018-08-19T11:57:03.719Z,55.25
2018-08-19T11:59:40.117Z,55.60
2018-08-19T12:02:10.659Z,54.98
2018-08-19T12:04:38.838Z,54.90
2018-08-19T12:07:06.985Z,54.86
2018-08-19T12:09:35.272Z,54.75
2018-08-19T12:12:03.451Z,55.46
2018-08-19T12:14:33.168Z,54.95
2018-08-19T12:17:01.991Z,54.05
2018-08-19T12:19:32.300Z,52.88
2018-08-19T12:22:02.617Z,52.56
2018-08-19T12:24:42.589Z,53.08
2018-08-19T12:27:12.090Z,53.06
2018-08-19T12:29:41.361Z,52.87
2018-08-19T12:32:16.152Z,52.71
2018-08-19T12:34:46.305Z,53.75
2018-08-19T12:37:15.568Z,52.38
2018-08-19T12:39:43.696Z,51.78
2018-08-19T12:42:11.876Z,51.49
2018-08-19T12:44:40.404Z,51.80
2018-08-19T12:47:18.202Z,51.94
2018-08-19T12:49:48.934Z,51.83
2018-08-19T12:52:19.155Z,52.70
2018-08-19T12:55:23.595Z,52.28
2018-08-19T12:57:57.204Z,50.66
2018-08-19T13:00:26.370Z,50.97
2018-08-19T13:02:54.729Z,51.08
2018-08-19T13:05:23.227Z,52.51
2018-08-19T13:07:51.519Z,51.66
2018-08-19T13:10:19.972Z,52.28
2018-08-19T13:12:56.575Z,52.59
2018-08-19T13:15:26.165Z,53.31
2018-08-19T13:17:54.330Z,52.07
2018-08-19T13:20:22.461Z,53.12
2018-08-19T13:22:55.883Z,53.35
2018-08-19T13:25:24.731Z,52.22
2018-08-19T13:27:52.886Z,52.63
2018-08-19T13:30:21.596Z,52.37
2018-08-19T13:32:50.425Z,51.62
2018-08-19T13:35:18.728Z,52.07
2018-08-19T13:37:46.911Z,51.15
2018-08-19T13:40:15.120Z,52.28
2018-08-19T13:42:43.395Z,52.42
2018-08-19T13:45:14.208Z,52.22
2018-08-19T13:47:43.653Z,52.01
2018-08-19T13:50:11.983Z,51.38
2018-08-19T13:52:40.542Z,51.71
2018-08-19T13:55:12.127Z,51.91
2018-08-19T13:57:40.253Z,52.06
2018-08-19T14:00:12.169Z,51.61
2018-08-19T14:02:40.318Z,50.99
2018-08-19T14:05:08.449Z,51.45
2018-08-19T14:07:36.590Z,50.04
2018-08-19T14:10:06.149Z,50.16
2018-08-19T14:12:34.313Z,51.18
2018-08-19T14:15:02.453Z,50.52
2018-08-19T14:17:30.597Z,50.43
2018-08-19T14:19:58.773Z,50.65
2018-08-19T14:22:27.593Z,49.80
2018-08-19T14:24:55.747Z,49.35
2018-08-19T14:27:24.865Z,50.19
2018-08-19T14:29:53.026Z,49.75
2018-08-19T14:32:32.501Z,48.41
2018-08-19T14:35:02.010Z,47.96
2018-08-19T14:37:30.643Z,49.19
2018-08-19T14:39:59.728Z,49.48
2018-08-19T14:42:27.861Z,48.50
2018-08-19T14:44:56.851Z,48.67
2018-08-19T14:47:25.154Z,48.74
2018-08-19T14:49:53.640Z,48.00
2018-08-19T14:52:21.778Z,47.98
2018-08-19T14:54:49.925Z,48.22
2018-08-19T14:57:18.045Z,47.75
2018-08-19T14:59:46.194Z,48.24
2018-08-19T15:02:14.323Z,48.38
2018-08-19T15:04:43.421Z,49.41
2018-08-19T15:07:11.654Z,48.97
2018-08-19T15:09:39.858Z,48.89
2018-08-19T15:12:14.334Z,47.86
2018-08-19T15:14:42.896Z,46.56
2018-08-19T15:17:11.588Z,46.82
2018-08-19T15:19:43.447Z,47.15
2018-08-19T15:22:11.582Z,47.52
2018-08-19T15:24:39.738Z,46.21
2018-08-19T15:27:07.915Z,46.90
2018-08-19T15:29:39.861Z,47.29
2018-08-19T15:32:08.101Z,48.57
2018-08-19T15:34:36.305Z,48.10
2018-08-19T15:37:04.462Z,48.37
2018-08-19T15:39:32.602Z,46.81
2018-08-19T15:42:00.757Z,47.45
2018-08-19T15:44:28.999Z,47.43
2018-08-19T15:46:57.156Z,47.10
2018-08-19T15:49:25.372Z,48.41
2018-08-19T15:51:53.689Z,47.97
2018-08-19T15:54:21.937Z,48.66
2018-08-19T15:56:50.044Z,47.88
2018-08-19T15:59:18.220Z,50.11
2018-08-19T16:01:46.345Z,50.36
2018-08-19T16:04:19.710Z,49.12
2018-08-19T16:06:49.090Z,49.90
2018-08-19T16:09:19.026Z,49.53
2018-08-19T16:11:47.809Z,50.62
2018-08-19T16:14:24.417Z,50.68
2018-08-19T16:16:53.259Z,50.10
2018-08-19T16:19:21.457Z,50.82
2018-08-19T16:21:51.764Z,51.30
2018-08-19T16:24:19.926Z,50.83
2018-08-19T16:26:48.956Z,52.03
2018-08-19T16:29:17.158Z,51.70
2018-08-19T16:31:45.482Z,51.29
2018-08-19T16:34:13.773Z,51.95
2018-08-19T16:36:41.941Z,50.23
2018-08-19T16:39:12.608Z,51.52
2018-08-19T16:41:40.719Z,50.15
2018-08-19T16:44:09.172Z,51.50
2018-08-19T16:46:37.368Z,50.86
2018-08-19T16:49:06.145Z,51.93
2018-08-19T16:51:34.355Z,51.44
2018-08-19T16:54:02.708Z,52.76
2018-08-19T16:56:31.009Z,52.33
2018-08-19T16:58:59.488Z,50.27
2018-08-19T17:01:27.727Z,51.78
2018-08-19T17:03:56.511Z,51.31
2018-08-19T17:06:25.505Z,52.11
2018-08-19T17:08:53.677Z,51.43
2018-08-19T17:11:21.848Z,52.32
2018-08-19T17:13:49.984Z,52.52
2018-08-19T17:16:18.111Z,52.97
2018-08-19T17:18:47.366Z,53.43
2018-08-19T17:21:15.508Z,53.12
2018-08-19T17:23:47.573Z,52.94
2018-08-19T17:26:18.793Z,52.83
2018-08-19T17:28:46.857Z,53.67
2018-08-19T17:31:15.019Z,53.69
2018-08-19T17:33:43.176Z,54.82
2018-08-19T17:36:11.325Z,54.87
2018-08-19T17:38:39.485Z,54.70
2018-08-19T17:41:07.604Z,56.27
2018-08-19T17:43:42.171Z,55.96
2018-08-19T17:46:13.289Z,56.15
2018-08-19T17:48:42.337Z,56.63
2018-08-19T17:51:23.102Z,57.06
2018-08-19T17:53:51.352Z,56.95
2018-08-19T17:56:19.744Z,57.48
2018-08-19T17:58:48.528Z,57.68
2018-08-19T18:01:17.022Z,56.07
2018-08-19T18:03:45.177Z,56.10
2018-08-19T18:06:13.345Z,57.50
2018-08-19T18:08:45.645Z,57.04
2018-08-19T18:11:13.797Z,57.79
2018-08-19T18:13:41.982Z,57.55
2018-08-19T18:16:10.134Z,58.35
2018-08-19T18:18:38.257Z,57.98
2018-08-19T18:21:06.435Z,58.40
2018-08-19T18:23:34.605Z,58.52
2018-08-19T18:26:02.757Z,57.75
2018-08-19T18:28:31.994Z,58.60
2018-08-19T18:31:09.295Z,57.84
2018-08-19T18:33:50.995Z,58.55
2018-08-19T18:36:20.481Z,58.41
2018-08-19T18:38:48.662Z,58.61
2018-08-19T18:41:25.091Z,58.20
2018-08-19T18:43:56.701Z,59.34
2018-08-19T18:46:25.171Z,60.58
2018-08-19T18:49:01.538Z,61.92
2018-08-19T18:51:30.742Z,63.37
2018-08-19T18:53:59.142Z,63.91
2018-08-19T18:56:28.337Z,64.38
2018-08-19T18:58:56.505Z,64.99
2018-08-19T19:01:24.637Z,65.43
2018-08-19T19:03:52.825Z,66.33
2018-08-19T19:06:20.998Z,66.50
2018-08-19T19:08:49.108Z,66.84
2018-08-19T19:11:20.072Z,67.24
2018-08-19T19:13:48.374Z,67.01
2018-08-19T19:16:18.672Z,67.55
2018-08-19T19:18:46.817Z,67.70
2018-08-19T19:21:14.934Z,68.10
2018-08-19T19:23:44.343Z,68.74
2018-08-19T19:26:12.500Z,69.15
2018-08-19T19:28:40.626Z,69.32
2018-08-19T19:31:16.037Z,69.63
2018-08-19T19:33:44.145Z,69.89
2018-08-19T19:36:18.313Z,69.78
2018-08-19T19:38:51.917Z,70.20
2018-08-19T19:41:23.065Z,70.57
2018-08-19T19:43:51.240Z,70.78
2018-08-19T19:46:19.394Z,71.03
2018-08-19T19:48:47.703Z,71.36
2018-08-19T19:51:15.838Z,72.21
2018-08-19T19:53:44.026Z,72.51
2018-08-19T19:56:13.187Z,72.51
2018-08-19T19:58:42.276Z,73.05
2018-08-19T20:01:10.431Z,72.87
2018-08-19T20:03:46.647Z,73.08
2018-08-19T20:06:14.796Z,73.29
2018-08-19T20:08:42.940Z,72.70
2018-08-19T20:11:19.254Z,73.26
2018-08-19T20:13:47.713Z,74.07
2018-08-19T20:16:15.871Z,73.25
2018-08-19T20:18:44.012Z,74.17
2018-08-19T20:21:17.542Z,74.10
2018-08-19T20:23:45.677Z,74.04
2018-08-19T20:26:13.863Z,74.48
2018-08-19T20:28:42.000Z,74.34
2018-08-19T20:31:10.173Z,73.98
2018-08-19T20:33:38.313Z,73.99
2018-08-19T20:36:06.435Z,73.92
2018-08-19T20:38:34.552Z,74.73
2018-08-19T20:41:02.672Z,74.84
2018-08-19T20:43:30.800Z,75.24
2018-08-19T20:45:58.943Z,75.68
2018-08-19T20:48:27.069Z,76.01
2018-08-19T20:50:55.213Z,75.30
2018-08-19T20:53:23.336Z,76.19
2018-08-19T20:55:51.468Z,76.37
2018-08-19T20:58:19.593Z,76.39
2018-08-19T21:00:47.704Z,76.51
2018-08-19T21:03:15.835Z,76.96
2018-08-19T21:05:43.947Z,77.09
2018-08-19T21:08:13.817Z,76.91
2018-08-19T21:10:43.800Z,77.34
2018-08-19T21:13:13.401Z,77.45
2018-08-19T21:15:46.837Z,76.77
2018-08-19T21:18:14.986Z,76.36
2018-08-19T21:20:43.520Z,76.37
2018-08-19T21:23:11.832Z,76.28
2018-08-19T21:25:59.863Z,76.81
2018-08-19T21:28:28.105Z,76.26
2018-08-19T21:30:56.316Z,76.38
2018-08-19T21:33:24.472Z,76.17
2018-08-19T21:35:54.097Z,75.39
2018-08-19T21:38:22.223Z,76.19
2018-08-19T21:40:53.924Z,75.05
2018-08-19T21:43:25.885Z,75.35
2018-08-19T21:45:53.997Z,75.14
2018-08-19T21:48:22.117Z,75.06
2018-08-19T21:50:50.282Z,74.62
2018-08-19T21:53:19.324Z,74.57
2018-08-19T21:55:48.730Z,75.14
2018-08-19T21:58:16.889Z,75.35
2018-08-19T22:00:48.224Z,74.77
2018-08-19T22:03:21.944Z,74.94
2018-08-19T22:05:52.292Z,74.86
2018-08-19T22:08:22.213Z,75.16
2018-08-19T22:10:50.367Z,74.58
2018-08-19T22:13:18.505Z,74.82
2018-08-19T22:15:47.257Z,74.38
2018-08-19T22:18:19.761Z,74.77
2018-08-19T22:21:02.137Z,74.80
2018-08-19T22:23:35.304Z,74.88
2018-08-19T22:26:03.457Z,74.50
2018-08-19T22:28:31.761Z,74.85
2018-08-19T22:31:10.005Z,74.88
2018-08-19T22:33:38.440Z,74.24
2018-08-19T22:36:06.597Z,74.37
2018-08-19T22:38:34.745Z,74.39
2018-08-19T22:41:02.878Z,74.50
2018-08-19T22:43:31.030Z,74.27
2018-08-19T22:45:59.183Z,74.38
2018-08-19T22:48:37.393Z,74.48
2018-08-19T22:51:06.065Z,73.82
2018-08-19T22:53:34.206Z,73.82
2018-08-19T22:56:02.486Z,73.90
2018-08-19T22:58:30.607Z,73.98
2018-08-19T23:00:58.767Z,74.65
2018-08-19T23:03:27.178Z,74.18
2018-08-19T23:05:55.365Z,74.26
2018-08-19T23:08:27.853Z,73.31
2018-08-19T23:10:57.656Z,73.34
2018-08-19T23:13:37.343Z,73.46
2018-08-19T23:16:07.524Z,73.05
2018-08-19T23:18:36.057Z,73.42
2018-08-19T23:21:04.246Z,73.34
2018-08-19T23:23:32.666Z,73.02
2018-08-19T23:26:00.933Z,73.23
2018-08-19T23:28:29.054Z,72.88
2018-08-19T23:30:57.635Z,73.00
2018-08-19T23:33:25.761Z,73.33
2018-08-19T23:35:53.970Z,72.85
2018-08-19T23:38:22.149Z,72.84
2018-08-19T23:40:50.333Z,73.45
2018-08-19T23:43:18.605Z,73.64
2018-08-19T23:45:46.770Z,73.60
2018-08-19T23:48:14.918Z,74.10
2018-08-19T23:50:43.047Z,74.03
2018-08-19T23:53:12.220Z,74.06
2018-08-19T23:55:40.775Z,74.04
2018-08-19T23:58:09.152Z,74.40
